Time;durP1;ratioP1;P1;durP2;ratioP2;P2;SDS_P1;SDS_P2;PMS_P1;PMS_P2;Temp;Humidity;BMP_temperature;BMP_pressure;BME280_temperature;BME280_humidity;BME280_pressure;Samples;Min_cycle;Max_cycle;Signal;HPM_P1;HPM_P2
2022/01/03 00:00:21;;;;;;;43.53;5.20;;;;;;;9.15;79.03;101147.00;5022696;28;20238;-63
2022/01/03 00:02:46;;;;;;;33.28;5.18;;;;;;;9.14;78.93;101154.94;5017067;28;20018;-62
2022/01/03 00:05:12;;;;;;;24.38;4.00;;;;;;;9.06;79.26;101155.13;5018816;28;20029;-64
2022/01/03 00:07:39;;;;;;;29.25;4.10;;;;;;;9.09;79.27;101150.66;5028965;28;20037;-63
2022/01/03 00:10:06;;;;;;;38.00;5.35;;;;;;;9.07;79.14;101148.97;5026468;28;20618;-64
2022/01/03 00:12:32;;;;;;;33.63;4.68;;;;;;;9.04;79.47;101147.28;5028892;28;20029;-63
2022/01/03 00:14:58;;;;;;;33.33;4.53;;;;;;;9.04;79.29;101159.56;5026673;28;20495;-63
2022/01/03 00:17:23;;;;;;;33.20;4.03;;;;;;;9.06;78.71;101155.13;5011314;28;20495;-63
2022/01/03 00:19:48;;;;;;;44.40;4.65;;;;;;;9.07;79.17;101154.22;5026555;28;20106;-62
2022/01/03 00:22:17;;;;;;;37.85;5.28;;;;;;;9.06;78.54;101166.50;5011631;28;20029;-62
2022/01/03 00:24:45;;;;;;;30.50;5.18;;;;;;;9.09;78.72;101166.44;5007734;28;20468;-62
2022/01/03 00:27:15;;;;;;;38.55;4.53;;;;;;;9.07;78.76;101170.88;5011557;28;20140;-62
2022/01/03 00:29:45;;;;;;;41.67;5.85;;;;;;;9.10;78.77;101157.63;5027060;28;20244;-63
2022/01/03 00:32:11;;;;;;;45.90;4.97;;;;;;;9.10;78.58;101164.69;5007924;28;20041;-63
2022/01/03 00:34:37;;;;;;;37.08;5.03;;;;;;;9.06;79.07;101166.50;4991316;28;20303;-62
2022/01/03 00:37:05;;;;;;;39.85;4.10;;;;;;;9.04;79.10;101167.44;5027378;28;20117;-62
2022/01/03 00:39:31;;;;;;;31.60;4.47;;;;;;;9.02;79.10;101179.72;5013726;28;20030;-61
2022/01/03 00:41:58;;;;;;;36.47;5.07;;;;;;;9.03;78.80;101171.81;5045293;28;20032;-63
2022/01/03 00:44:24;;;;;;;35.33;4.50;;;;;;;9.01;78.67;101168.38;5047063;28;20031;-63
2022/01/03 00:46:52;;;;;;;32.03;5.18;;;;;;;9.03;78.17;101174.44;5030351;28;20087;-62
2022/01/03 00:49:17;;;;;;;29.20;4.75;;;;;;;9.03;77.96;101174.44;5027105;28;20049;-61
2022/01/03 00:51:43;;;;;;;27.80;4.25;;;;;;;9.04;77.98;101176.19;5036999;28;20118;-63
2022/01/03 00:54:08;;;;;;;31.88;4.97;;;;;;;9.04;77.86;101170.94;5046091;28;20112;-64
2022/01/03 00:56:35;;;;;;;36.90;5.38;;;;;;;9.01;77.63;101163.13;5045724;28;20132;-62
2022/01/03 00:59:15;;;;;;;33.55;4.40;;;;;;;9.02;77.55;101167.47;5046325;28;20021;-62
2022/01/03 01:01:47;;;;;;;30.77;4.28;;;;;;;9.03;77.13;101160.47;5037710;28;20037;-62
2022/01/03 01:04:14;;;;;;;25.80;4.05;;;;;;;9.04;77.29;101163.06;5020320;28;20057;-63
2022/01/03 01:06:39;;;;;;;33.60;4.45;;;;;;;8.99;77.31;101170.16;5016955;28;20392;-66
2022/01/03 01:09:09;;;;;;;31.15;4.13;;;;;;;8.95;77.79;101171.13;5026330;28;20029;-63
2022/01/03 01:11:35;;;;;;;38.97;6.50;;;;;;;8.98;77.62;101176.31;5025806;28;20040;-63
2022/01/03 01:14:01;;;;;;;33.42;4.47;;;;;;;8.97;77.95;101180.72;5020351;28;20041;-63
2022/01/03 01:16:27;;;;;;;30.27;4.88;;;;;;;8.91;78.39;101193.13;5025516;28;20041;-62
2022/01/03 01:18:53;;;;;;;41.50;5.72;;;;;;;9.00;77.82;101173.66;5010282;28;20424;-62
2022/01/03 01:21:19;;;;;;;31.10;4.53;;;;;;;8.96;77.61;101168.47;5020732;28;20128;-64
2022/01/03 01:23:45;;;;;;;33.85;4.60;;;;;;;8.99;77.86;101175.41;5021888;28;20452;-62
2022/01/03 01:28:55;;;;;;;31.65;4.78;;;;;;;8.97;77.61;101177.19;5024194;28;20059;-63
2022/01/03 01:31:22;;;;;;;29.35;4.43;;;;;;;8.95;77.72;101197.41;5025816;28;20480;-63
2022/01/03 01:33:52;;;;;;;39.33;4.45;;;;;;;8.97;77.96;101198.22;5024962;28;20029;-63
2022/01/03 01:36:19;;;;;;;40.38;5.03;;;;;;;8.98;77.97;101184.22;5026227;28;20026;-63
2022/01/03 01:38:49;;;;;;;33.90;4.97;;;;;;;8.95;77.61;101179.03;5007082;28;20057;-63
2022/01/03 01:41:17;;;;;;;25.77;4.78;;;;;;;8.92;78.00;101179.09;5026771;28;20030;-62
2022/01/03 01:43:46;;;;;;;32.45;4.97;;;;;;;8.83;78.36;101175.78;5015942;28;20065;-62
2022/01/03 01:46:17;;;;;;;31.15;4.75;;;;;;;8.82;78.38;101167.91;5023748;28;20033;-63
2022/01/03 01:48:45;;;;;;;30.73;4.40;;;;;;;8.86;78.30;101180.09;5012400;28;20025;-64
2022/01/03 01:51:12;;;;;;;29.27;5.05;;;;;;;8.87;77.99;101173.03;5026893;28;20025;-62
2022/01/03 01:53:47;;;;;;;27.98;4.60;;;;;;;8.90;77.90;101175.59;5024741;28;20057;-63
2022/01/03 01:56:23;;;;;;;36.65;5.20;;;;;;;8.88;78.15;101172.16;5008735;28;20480;-63
2022/01/03 01:58:58;;;;;;;37.13;4.45;;;;;;;8.84;78.49;101174.84;5025544;28;20025;-63
2022/01/03 02:01:40;;;;;;;32.80;5.30;;;;;;;8.87;78.57;101178.31;5026549;28;20029;-63
2022/01/03 02:04:17;;;;;;;35.92;5.43;;;;;;;8.83;78.62;101190.66;5031389;28;20131;-63
2022/01/03 02:06:47;;;;;;;40.70;5.40;;;;;;;8.84;78.65;101188.00;5046217;28;20499;-63
2022/01/03 02:09:19;;;;;;;50.05;5.60;;;;;;;8.89;78.51;101182.66;5038952;28;20066;-63
2022/01/03 02:11:55;;;;;;;32.53;5.22;;;;;;;8.92;78.37;101193.09;5026115;28;20025;-63
2022/01/03 02:14:22;;;;;;;33.00;4.93;;;;;;;8.91;78.63;101188.72;5024347;28;20669;-62
2022/01/03 02:16:48;;;;;;;41.13;5.97;;;;;;;8.91;78.80;101187.88;5013169;28;20056;-62
2022/01/03 02:19:14;;;;;;;33.13;5.40;;;;;;;8.93;78.63;101186.06;5017769;28;20041;-64
2022/01/03 02:21:39;;;;;;;29.25;5.00;;;;;;;8.94;78.70;101186.03;5026744;28;20029;-62
2022/01/03 02:24:05;;;;;;;28.40;4.40;;;;;;;8.93;78.58;101197.44;5019506;28;20427;-62
2022/01/03 02:26:31;;;;;;;39.35;5.20;;;;;;;8.91;78.78;101193.97;5011567;28;20152;-62
2022/01/03 02:28:56;;;;;;;41.67;5.57;;;;;;;8.87;78.83;101196.69;5005594;28;20109;-63
2022/01/03 02:31:22;;;;;;;39.90;4.95;;;;;;;8.93;78.46;101180.81;5023769;28;20245;-63
2022/01/03 02:33:48;;;;;;;43.47;4.90;;;;;;;8.91;78.50;101180.84;5025218;28;20357;-62
2022/01/03 02:36:16;;;;;;;40.42;5.30;;;;;;;8.91;78.74;101174.72;5007456;28;20101;-63
2022/01/03 02:38:41;;;;;;;41.40;5.45;;;;;;;8.87;78.80;101191.44;5025581;28;20026;-62
2022/01/03 02:41:07;;;;;;;45.35;5.07;;;;;;;8.92;78.24;101181.72;5040278;28;20460;-63
2022/01/03 02:43:32;;;;;;;45.83;5.95;;;;;;;8.94;78.38;101182.56;5045189;28;20048;-63
2022/01/03 02:45:57;;;;;;;31.02;4.93;;;;;;;8.91;78.38;101187.88;5044623;28;20059;-63
2022/01/03 02:48:23;;;;;;;34.95;4.65;;;;;;;8.90;78.24;101180.88;5044672;28;20049;-63
2022/01/03 02:50:48;;;;;;;37.65;4.78;;;;;;;8.86;78.33;101169.56;5032214;28;20033;-63
2022/01/03 02:53:13;;;;;;;36.30;4.55;;;;;;;8.91;78.46;101193.97;5025781;28;20024;-62
2022/01/03 02:55:39;;;;;;;44.38;5.53;;;;;;;8.94;78.22;101180.78;5024444;28;20021;-63
2022/01/03 02:58:07;;;;;;;38.33;6.28;;;;;;;8.93;78.07;101178.19;5043368;28;20801;-63
2022/01/03 03:00:36;;;;;;;37.90;6.82;;;;;;;8.91;78.40;101177.38;5044930;28;20029;-64
2022/01/03 03:03:03;;;;;;;47.33;5.97;;;;;;;8.93;78.56;101191.31;5027920;28;20051;-63
2022/01/03 03:05:29;;;;;;;47.53;6.13;;;;;;;8.88;78.49;101187.94;5025245;28;20111;-63
2022/01/03 03:07:54;;;;;;;38.40;4.78;;;;;;;8.88;78.45;101191.41;5006472;28;20104;-64
2022/01/03 03:10:21;;;;;;;32.78;4.43;;;;;;;8.90;78.33;101191.38;5025246;28;20257;-63
2022/01/03 03:12:47;;;;;;;37.33;5.45;;;;;;;8.88;78.45;101183.53;5024361;28;20029;-62
2022/01/03 03:15:15;;;;;;;39.15;5.82;;;;;;;8.92;78.23;101179.97;5025742;28;20029;-63
2022/01/03 03:17:41;;;;;;;39.38;5.82;;;;;;;8.90;78.64;101180.88;5023117;28;20052;-62
2022/01/03 03:20:12;;;;;;;40.47;5.30;;;;;;;8.94;78.35;101166.78;5025434;28;20388;-63
2022/01/03 03:22:38;;;;;;;49.20;7.32;;;;;;;8.93;78.54;101176.41;5005360;28;20087;-63
2022/01/03 03:25:26;;;;;;;37.97;5.32;;;;;;;8.96;78.09;101186.00;5008320;28;20902;-64
2022/01/03 03:27:55;;;;;;;49.63;5.53;;;;;;;8.93;78.43;101172.91;5027198;28;20033;-63
2022/01/03 03:30:36;;;;;;;48.33;6.85;;;;;;;8.85;79.20;101167.81;5045681;28;20033;-65
2022/01/03 03:33:06;;;;;;;41.83;4.88;;;;;;;8.84;79.12;101177.50;5040514;28;20032;-63
2022/01/03 03:35:31;;;;;;;37.63;4.78;;;;;;;8.89;79.33;101179.16;5006757;28;20095;-63
2022/01/03 03:37:57;;;;;;;51.38;7.65;;;;;;;8.87;79.39;101163.41;5024083;28;20469;-62
2022/01/03 03:40:22;;;;;;;52.42;6.13;;;;;;;8.91;79.65;101172.94;5024910;28;20112;-63
2022/01/03 03:42:47;;;;;;;75.90;7.88;;;;;;;8.87;80.11;101163.41;5031766;28;20029;-63
2022/01/03 03:45:15;;;;;;;46.75;5.32;;;;;;;8.88;80.41;101169.53;5044670;28;20031;-63
2022/01/03 03:47:40;;;;;;;43.42;6.15;;;;;;;8.86;80.25;101169.56;5038174;28;20325;-63
2022/01/03 03:50:06;;;;;;;42.90;7.50;;;;;;;8.85;80.55;101163.44;5025109;28;20034;-63
2022/01/03 03:52:32;;;;;;;45.60;6.57;;;;;;;8.83;80.55;101164.38;5005661;28;20706;-63
2022/01/03 03:54:57;;;;;;;54.70;7.00;;;;;;;8.84;80.76;101169.59;5023925;28;20067;-63
2022/01/03 03:57:23;;;;;;;54.28;5.55;;;;;;;8.88;80.14;101180.06;5023728;28;20025;-64
2022/01/03 03:59:48;;;;;;;48.72;5.75;;;;;;;8.87;80.38;101154.66;5027575;28;20022;-64
2022/01/03 04:02:14;;;;;;;50.90;6.03;;;;;;;8.88;80.16;101153.78;5028309;28;20025;-63
2022/01/03 04:04:39;;;;;;;50.50;6.40;;;;;;;8.87;80.05;101141.50;5028454;28;20017;-63
2022/01/03 04:07:04;;;;;;;51.17;6.93;;;;;;;8.84;80.45;101156.47;5027986;28;20550;-62
2022/01/03 04:09:30;;;;;;;46.67;5.82;;;;;;;8.83;80.63;101159.13;5026319;28;20056;-63
2022/01/03 04:11:56;;;;;;;55.53;7.50;;;;;;;8.86;80.52;101148.56;5027494;28;20029;-62
2022/01/03 04:14:21;;;;;;;44.92;5.97;;;;;;;8.85;80.57;101142.41;5010092;28;20033;-64
2022/01/03 04:16:46;;;;;;;43.47;5.85;;;;;;;8.90;80.78;101155.47;5028154;28;20566;-64
2022/01/03 04:19:12;;;;;;;54.10;7.00;;;;;;;8.93;80.81;101141.38;5026873;28;20048;-63
2022/01/03 04:21:39;;;;;;;44.58;5.78;;;;;;;8.96;80.52;101164.97;5028047;28;20037;-64
2022/01/03 04:24:07;;;;;;;56.95;8.20;;;;;;;8.91;80.88;101151.09;5025662;28;20199;-63
2022/01/03 04:26:32;;;;;;;65.13;8.60;;;;;;;8.91;80.93;101153.72;5028075;28;20045;-64
2022/01/03 04:28:58;;;;;;;47.88;7.13;;;;;;;8.93;81.12;101165.03;5026916;28;20110;-63
2022/01/03 04:31:23;;;;;;;49.75;7.43;;;;;;;8.96;81.03;101138.69;5027742;28;20041;-63
2022/01/03 04:33:48;;;;;;;53.92;6.20;;;;;;;8.95;81.23;101137.84;5026962;28;20107;-63
2022/01/03 04:36:14;;;;;;;47.03;6.63;;;;;;;8.94;81.23;101146.59;5028708;28;20206;-64
2022/01/03 04:38:39;;;;;;;62.55;7.10;;;;;;;8.95;81.55;101131.72;5020486;28;20439;-63
2022/01/03 04:41:05;;;;;;;52.05;6.80;;;;;;;8.94;81.43;101132.63;4974183;28;20033;-63
2022/01/03 04:43:30;;;;;;;58.22;9.07;;;;;;;8.92;81.71;101116.88;5010391;28;20045;-62
2022/01/03 04:45:56;;;;;;;55.17;8.48;;;;;;;8.92;81.47;101119.50;5027886;28;20380;-63
2022/01/03 04:48:22;;;;;;;53.35;6.97;;;;;;;8.96;81.55;101115.91;5026338;28;20099;-63
2022/01/03 04:50:48;;;;;;;62.30;7.20;;;;;;;8.90;81.55;101117.78;5028147;28;20033;-62
2022/01/03 04:53:13;;;;;;;49.65;5.43;;;;;;;8.91;81.83;101115.13;5026850;28;20037;-64
2022/01/03 04:55:39;;;;;;;42.33;6.30;;;;;;;8.92;81.81;101116.00;5027367;28;20036;-62
2022/01/03 04:58:04;;;;;;;60.72;8.00;;;;;;;8.86;81.74;101117.00;5026568;28;20029;-63
2022/01/03 05:00:29;;;;;;;55.47;7.57;;;;;;;8.90;81.73;101130.94;5044117;28;20037;-62
2022/01/03 05:02:55;;;;;;;43.55;5.70;;;;;;;8.93;81.37;101108.09;5046657;28;20029;-64
2022/01/03 05:05:21;;;;;;;51.63;6.95;;;;;;;8.94;81.28;101104.56;5031933;28;20028;-63
2022/01/03 05:07:47;;;;;;;55.38;6.85;;;;;;;9.00;81.18;101121.09;5025927;28;20385;-62
2022/01/03 05:10:13;;;;;;;42.30;7.50;;;;;;;8.98;81.23;101111.47;5038682;28;20021;-61
2022/01/03 05:12:38;;;;;;;41.28;6.30;;;;;;;8.95;81.30;101108.94;5047032;28;20025;-63
2022/01/03 05:15:04;;;;;;;55.60;6.43;;;;;;;8.95;81.41;101106.31;5035026;28;20037;-63
2022/01/03 05:17:31;;;;;;;61.25;8.02;;;;;;;8.92;81.65;101116.00;5026814;28;20025;-63
2022/01/03 05:19:57;;;;;;;58.72;6.88;;;;;;;8.97;81.37;101116.75;5025956;28;20025;-64
2022/01/03 05:22:22;;;;;;;52.83;6.75;;;;;;;8.95;81.46;101114.19;5026158;28;20026;-62
2022/01/03 05:24:47;;;;;;;60.58;7.25;;;;;;;8.95;81.80;101106.31;5031578;28;20419;-63
2022/01/03 05:27:12;;;;;;;45.78;6.20;;;;;;;8.94;81.97;101103.72;5047388;28;20025;-63
2022/01/03 05:29:38;;;;;;;53.50;6.72;;;;;;;8.95;81.80;101105.44;5045388;28;20479;-64
2022/01/03 05:32:04;;;;;;;53.17;6.80;;;;;;;9.00;81.05;101106.16;5047125;28;20271;-63
2022/01/03 05:34:29;;;;;;;62.17;7.97;;;;;;;9.07;81.10;101109.53;5026127;28;20116;-64
2022/01/03 05:36:54;;;;;;;40.65;5.80;;;;;;;9.09;81.25;101102.47;5026799;28;20108;-64
2022/01/03 05:39:20;;;;;;;53.90;7.20;;;;;;;9.10;80.96;101105.06;5025190;28;20128;-63
2022/01/03 05:41:45;;;;;;;49.75;6.90;;;;;;;9.12;81.18;101105.03;5027119;28;20021;-64
2022/01/03 05:44:10;;;;;;;54.72;6.90;;;;;;;9.15;81.22;101101.47;5025841;28;20527;-64
2022/01/03 05:46:36;;;;;;;55.90;6.97;;;;;;;9.18;81.30;101093.53;5026008;28;20507;-64
2022/01/03 05:49:01;;;;;;;46.35;7.63;;;;;;;9.20;80.99;101110.97;5024369;28;20029;-64
2022/01/03 05:51:27;;;;;;;54.83;7.10;;;;;;;9.24;81.25;101101.22;5026978;28;20041;-64
2022/01/03 05:53:53;;;;;;;41.78;6.03;;;;;;;9.23;81.01;101131.06;5020061;28;20372;-63
2022/01/03 05:56:19;;;;;;;47.03;6.53;;;;;;;9.29;80.74;101107.25;5026902;28;20710;-63
2022/01/03 05:58:44;;;;;;;56.22;6.63;;;;;;;9.28;80.61;101091.53;5026806;28;20030;-64
2022/01/03 06:01:10;;;;;;;40.55;6.10;;;;;;;9.24;81.11;101093.34;5027279;28;20383;-64
2022/01/03 06:03:38;;;;;;;52.95;6.60;;;;;;;9.19;81.05;101097.88;5026395;28;20472;-63
2022/01/03 06:06:17;;;;;;;52.92;7.38;;;;;;;9.21;80.64;101090.78;5009069;28;20468;-64
2022/01/03 06:08:43;;;;;;;44.53;7.15;;;;;;;9.25;80.54;101103.00;5026650;28;20385;-63
2022/01/03 06:11:08;;;;;;;58.63;6.43;;;;;;;9.28;80.52;101095.03;5026194;28;20036;-63
2022/01/03 06:13:34;;;;;;;56.45;6.95;;;;;;;9.21;80.82;101085.53;5026471;28;20034;-63
2022/01/03 06:15:59;;;;;;;47.08;6.60;;;;;;;9.19;80.69;101106.63;5026422;28;20032;-63
2022/01/03 06:18:24;;;;;;;46.75;6.55;;;;;;;9.18;80.73;101091.72;5025310;28;20037;-65
2022/01/03 06:20:51;;;;;;;53.42;6.32;;;;;;;9.16;80.52;101080.41;5023479;28;20021;-63
2022/01/03 06:23:18;;;;;;;36.03;5.95;;;;;;;9.09;81.06;101077.03;5024189;28;20080;-62
2022/01/03 06:25:44;;;;;;;41.65;5.50;;;;;;;9.11;80.80;101079.63;5026601;28;20360;-64
2022/01/03 06:28:09;;;;;;;43.17;6.00;;;;;;;9.10;80.90;101078.75;5026629;28;20013;-64
2022/01/03 06:30:36;;;;;;;57.08;6.25;;;;;;;9.14;80.99;101083.94;5026229;28;20446;-63
2022/01/03 06:33:02;;;;;;;64.78;8.30;;;;;;;9.25;80.43;101095.09;5026343;28;20104;-68
2022/01/03 06:35:28;;;;;;;48.03;5.95;;;;;;;9.32;80.58;101072.13;5025466;28;20033;-69
2022/01/03 06:37:53;;;;;;;59.45;7.28;;;;;;;9.32;80.10;101061.59;5024050;28;20029;-68
2022/01/03 06:40:19;;;;;;;54.05;6.00;;;;;;;9.38;80.23;101076.38;5024692;28;20049;-65
2022/01/03 06:42:44;;;;;;;45.55;6.75;;;;;;;9.42;80.06;101065.72;5014127;28;20029;-63
2022/01/03 06:45:09;;;;;;;49.45;5.88;;;;;;;9.41;79.60;101077.16;5018378;28;20431;-64
2022/01/03 06:47:35;;;;;;;54.28;7.07;;;;;;;9.40;79.87;101088.59;5026282;28;20459;-64
2022/01/03 06:50:00;;;;;;;54.33;6.30;;;;;;;9.41;79.73;101078.91;5024110;28;20029;-68
2022/01/03 06:52:26;;;;;;;49.80;6.03;;;;;;;9.34;79.84;101072.97;5013917;28;20044;-63
2022/01/03 06:54:51;;;;;;;34.95;5.55;;;;;;;9.32;79.91;101082.66;5014267;28;20044;-65
2022/01/03 06:57:16;;;;;;;52.20;6.53;;;;;;;9.27;80.05;101072.25;5017360;28;20033;-65
2022/01/03 06:59:42;;;;;;;32.97;5.88;;;;;;;9.23;80.24;101086.38;5004716;28;20074;-62
2022/01/03 07:02:07;;;;;;;36.67;6.07;;;;;;;9.15;80.45;101075.19;5004399;28;20022;-61
2022/01/03 07:04:33;;;;;;;49.08;5.57;;;;;;;9.13;80.61;101075.22;5012960;28;20033;-64
2022/01/03 07:06:58;;;;;;;39.55;5.85;;;;;;;9.15;80.48;101072.56;5013973;28;20404;-61
2022/01/03 07:09:24;;;;;;;41.53;6.03;;;;;;;9.10;80.80;101078.75;5005812;28;20050;-62
2022/01/03 07:11:49;;;;;;;51.83;7.05;;;;;;;9.04;80.83;101065.78;5023130;28;20320;-62
2022/01/03 07:19:37;;;;;;;50.93;6.20;;;;;;;9.07;80.77;101088.50;5025339;28;20204;-62
2022/01/03 07:22:04;;;;;;;39.25;5.47;;;;;;;9.06;80.26;101081.53;5024145;28;20458;-60
2022/01/03 07:24:34;;;;;;;47.50;6.15;;;;;;;9.05;80.39;101080.66;5025875;28;20424;-60
2022/01/03 07:27:04;;;;;;;49.80;6.00;;;;;;;9.03;80.81;101094.75;5023090;28;20022;-60
2022/01/03 07:29:30;;;;;;;44.47;7.32;;;;;;;8.98;80.66;101079.91;5007659;28;20472;-60
2022/01/03 07:31:55;;;;;;;55.65;7.30;;;;;;;9.01;80.37;101092.16;5023021;28;20039;-60
2022/01/03 07:34:20;;;;;;;42.45;6.53;;;;;;;8.96;80.87;101094.88;5023837;28;20034;-60
2022/01/03 07:36:46;;;;;;;47.47;6.13;;;;;;;8.93;80.86;101097.56;5026230;28;20076;-60
2022/01/03 07:39:11;;;;;;;37.10;6.70;;;;;;;8.96;80.77;101091.38;5028361;28;20021;-65
2022/01/03 07:41:36;;;;;;;40.90;6.10;;;;;;;8.95;80.82;101095.78;5028069;28;20170;-61
2022/01/03 07:44:02;;;;;;;53.15;6.78;;;;;;;8.94;80.65;101087.94;5028141;28;20025;-59
2022/01/03 07:46:27;;;;;;;40.85;6.72;;;;;;;8.97;81.05;101085.22;5029180;28;20030;-60
2022/01/03 07:48:52;;;;;;;45.75;6.70;;;;;;;8.96;80.90;101101.88;5027755;28;20075;-61
2022/01/03 07:51:18;;;;;;;49.47;5.40;;;;;;;8.94;81.17;101122.94;5011260;28;20037;-61
2022/01/03 07:53:43;;;;;;;54.50;6.63;;;;;;;8.98;80.91;101100.94;5026164;28;20397;-60
2022/01/03 07:56:12;;;;;;;52.47;5.80;;;;;;;9.01;80.38;101102.66;5029071;28;20472;-60
2022/01/03 07:58:38;;;;;;;45.90;5.63;;;;;;;9.00;80.49;101098.28;5027118;28;20022;-59
2022/01/03 08:01:04;;;;;;;43.15;6.00;;;;;;;9.00;80.35;101102.69;5027672;28;20026;-61
2022/01/03 08:03:30;;;;;;;44.05;5.72;;;;;;;8.96;80.24;101107.16;5027397;28;20048;-61
2022/01/03 08:05:55;;;;;;;50.28;6.40;;;;;;;8.94;80.40;101104.56;5009936;28;20163;-61
2022/01/03 08:08:21;;;;;;;48.35;6.35;;;;;;;8.93;80.28;101091.44;5026517;28;20041;-60
2022/01/03 08:10:46;;;;;;;60.47;7.22;;;;;;;8.89;80.91;101095.94;5007792;28;20091;-60
2022/01/03 08:13:15;;;;;;;45.40;5.97;;;;;;;8.93;80.68;101097.56;5028089;28;20589;-60
2022/01/03 08:15:40;;;;;;;41.80;6.70;;;;;;;8.90;80.70;101088.88;5024764;28;20029;-60
2022/01/03 08:18:07;;;;;;;53.33;6.53;;;;;;;8.92;80.48;101098.50;5006879;28;20295;-61
2022/01/03 08:20:32;;;;;;;53.80;6.40;;;;;;;8.93;80.67;101096.69;5017950;28;20112;-60
2022/01/03 08:22:57;;;;;;;44.83;6.50;;;;;;;8.94;80.51;101093.19;5026891;28;20438;-60
2022/01/03 08:25:23;;;;;;;41.05;5.60;;;;;;;8.92;80.38;101081.84;5019481;28;20049;-61
2022/01/03 08:27:48;;;;;;;45.22;6.45;;;;;;;8.88;80.81;101086.28;5019133;28;20064;-61
2022/01/03 08:30:14;;;;;;;50.13;9.18;;;;;;;8.87;80.65;101081.06;5017361;28;20045;-61
2022/01/03 08:32:39;;;;;;;48.75;6.63;;;;;;;8.87;80.75;101097.72;5025282;28;20025;-59
2022/01/03 08:35:06;;;;;;;43.83;5.78;;;;;;;8.92;80.32;101093.22;5025487;28;20021;-60
2022/01/03 08:37:31;;;;;;;42.50;5.53;;;;;;;8.87;80.43;101100.34;5021818;28;20072;-62
2022/01/03 08:39:58;;;;;;;50.95;7.00;;;;;;;8.92;80.58;101108.13;5018186;28;20053;-59
2022/01/03 08:42:24;;;;;;;41.53;6.32;;;;;;;8.99;80.42;101107.06;5019189;28;20045;-60
2022/01/03 08:44:49;;;;;;;44.17;5.50;;;;;;;9.02;80.48;101119.28;5017783;28;20029;-61
2022/01/03 08:47:15;;;;;;;50.30;6.15;;;;;;;9.01;80.33;101113.19;5024258;28;20548;-60
2022/01/03 08:49:40;;;;;;;40.10;4.82;;;;;;;9.06;79.96;101120.97;5018113;28;20108;-61
2022/01/03 08:52:05;;;;;;;39.00;5.57;;;;;;;9.04;80.35;101121.00;5024354;28;20029;-62
2022/01/03 08:54:32;;;;;;;40.45;5.47;;;;;;;9.06;80.04;101107.81;5021343;28;20124;-60
2022/01/03 08:56:57;;;;;;;65.07;7.43;;;;;;;9.06;80.09;101118.34;4999402;28;20022;-61
2022/01/03 08:59:22;;;;;;;54.83;6.70;;;;;;;9.09;79.92;101118.22;5021351;28;20033;-61
2022/01/03 09:01:48;;;;;;;50.88;7.10;;;;;;;9.06;80.20;101124.44;5020859;28;20087;-60
2022/01/03 09:04:13;;;;;;;39.22;5.55;;;;;;;9.09;80.19;101119.09;5027869;28;20068;-61
2022/01/03 09:06:39;;;;;;;58.17;6.30;;;;;;;9.09;79.74;101113.84;5023651;28;20049;-61
2022/01/03 09:09:06;;;;;;;39.50;5.32;;;;;;;9.13;79.93;101109.41;5025688;28;20348;-61
2022/01/03 09:11:31;;;;;;;49.85;7.63;;;;;;;9.13;79.55;101105.91;4974471;28;20161;-60
2022/01/03 09:13:56;;;;;;;47.28;5.97;;;;;;;9.09;79.55;101108.59;4999083;28;20026;-60
2022/01/03 09:16:22;;;;;;;33.88;5.18;;;;;;;9.11;79.59;101105.94;4987367;28;20288;-61
2022/01/03 09:18:47;;;;;;;45.92;6.13;;;;;;;9.10;79.57;101102.44;4990954;28;20009;-61
2022/01/03 09:21:12;;;;;;;59.95;6.55;;;;;;;9.07;79.70;101092.00;5002543;28;20087;-60
2022/01/03 09:23:43;;;;;;;44.03;6.18;;;;;;;9.05;79.97;101088.53;4998812;28;20030;-60
2022/01/03 09:28:53;;;;;;;46.78;6.20;;;;;;;9.04;79.69;101086.81;5001974;28;20102;-60
2022/01/03 09:31:27;;;;;;;45.72;6.10;;;;;;;9.10;79.41;101084.03;5008217;28;20013;-61
2022/01/03 09:33:55;;;;;;;47.97;6.40;;;;;;;9.13;79.51;101093.63;5000769;28;20087;-61
2022/01/03 09:36:21;;;;;;;35.72;5.15;;;;;;;9.12;79.83;101081.34;5005429;28;20048;-61
2022/01/03 09:38:47;;;;;;;45.45;5.82;;;;;;;9.19;79.63;101082.97;5003593;28;20034;-61
2022/01/03 09:41:13;;;;;;;41.72;6.28;;;;;;;9.26;79.04;101074.91;4986203;28;20503;-60
2022/01/03 09:43:46;;;;;;;43.90;6.28;;;;;;;9.27;79.21;101085.38;5005985;28;20028;-60
2022/01/03 09:46:12;;;;;;;47.17;6.63;;;;;;;9.40;79.03;101079.84;5005914;28;20033;-60
2022/01/03 09:48:38;;;;;;;32.50;4.57;;;;;;;9.50;78.39;101081.31;4994173;28;20036;-60
2022/01/03 09:51:05;;;;;;;40.45;5.35;;;;;;;9.64;78.05;101069.59;4985511;28;20683;-61
2022/01/03 09:53:32;;;;;;;45.60;6.05;;;;;;;9.72;78.13;101078.13;4987487;28;20037;-61
2022/01/03 09:55:57;;;;;;;39.17;6.10;;;;;;;9.77;77.81;101070.09;4987288;28;20553;-61
2022/01/03 09:58:23;;;;;;;45.40;5.63;;;;;;;9.84;77.51;101076.94;4978737;28;20148;-62
2022/01/03 10:00:48;;;;;;;39.72;5.38;;;;;;;9.92;77.11;101080.25;4998331;28;20033;-61
2022/01/03 10:03:13;;;;;;;42.88;5.90;;;;;;;9.98;77.14;101084.47;4982417;28;20094;-60
2022/01/03 10:05:39;;;;;;;38.90;5.90;;;;;;;10.00;77.16;101080.03;4989484;28;20010;-60
2022/01/03 10:08:06;;;;;;;32.10;5.50;;;;;;;10.08;76.75;101085.94;4994463;28;20095;-60
2022/01/03 10:10:31;;;;;;;45.67;6.05;;;;;;;10.08;76.95;101062.25;5005911;28;20508;-60
2022/01/03 10:12:57;;;;;;;42.33;5.45;;;;;;;10.04;76.49;101070.25;5002020;28;20039;-61
2022/01/03 10:15:23;;;;;;;41.47;4.80;;;;;;;10.09;76.81;101069.22;5006211;28;20108;-62
2022/01/03 10:17:48;;;;;;;43.72;5.72;;;;;;;10.19;76.43;101080.38;4988529;28;20492;-59
2022/01/03 10:20:16;;;;;;;35.28;5.53;;;;;;;10.15;77.00;101073.47;5006205;28;20431;-61
2022/01/03 10:22:42;;;;;;;33.47;5.10;;;;;;;10.26;76.00;101059.97;5006134;28;20282;-61
2022/01/03 10:25:14;;;;;;;40.13;5.10;;;;;;;10.23;75.61;101055.66;5005462;28;20515;-61
2022/01/03 10:27:48;;;;;;;39.70;6.38;;;;;;;10.41;75.43;101057.81;5006318;28;20423;-60
2022/01/03 10:30:31;;;;;;;32.03;4.75;;;;;;;10.44;75.04;101060.34;4981241;28;20073;-62
2022/01/03 10:32:57;;;;;;;39.58;5.18;;;;;;;10.44;75.04;101052.44;5006221;28;20110;-60
2022/01/03 10:35:23;;;;;;;42.28;5.85;;;;;;;10.47;74.65;101057.66;5005048;28;20105;-61
2022/01/03 10:37:49;;;;;;;45.92;5.00;;;;;;;10.41;74.94;101050.75;5005807;28;20083;-60
2022/01/03 10:40:28;;;;;;;45.03;5.75;;;;;;;10.25;75.19;101050.38;4995456;28;20030;-63
2022/01/03 10:42:54;;;;;;;38.83;5.93;;;;;;;10.26;75.21;101054.72;4994767;28;20029;-67
2022/01/03 10:45:30;;;;;;;44.42;5.15;;;;;;;10.32;75.27;101054.53;5000132;28;20025;-64
2022/01/03 10:47:56;;;;;;;36.80;5.45;;;;;;;10.41;75.13;101042.84;4991198;28;20024;-62
2022/01/03 10:50:22;;;;;;;44.90;6.18;;;;;;;10.54;74.44;101051.28;5006078;28;20457;-62
2022/01/03 10:52:49;;;;;;;41.90;5.88;;;;;;;10.56;74.39;101030.16;5006058;28;20029;-64
2022/01/03 10:55:33;;;;;;;40.70;5.25;;;;;;;10.52;74.63;101037.31;5004905;28;20595;-67
2022/01/03 10:58:04;;;;;;;40.88;5.75;;;;;;;10.56;74.61;101033.66;5006150;28;20095;-64
2022/01/03 11:00:31;;;;;;;45.00;6.22;;;;;;;10.64;74.06;101038.69;4995649;28;20025;-64
2022/01/03 11:03:17;;;;;;;43.55;6.35;;;;;;;10.67;74.51;101029.84;5006540;28;20037;-63
2022/01/03 11:05:48;;;;;;;51.28;6.03;;;;;;;10.77;73.98;101030.44;5010849;28;20479;-63
2022/01/03 11:10:59;;;;;;;38.45;5.85;;;;;;;10.90;73.48;101022.97;5009030;28;20653;-59
2022/01/03 11:13:24;;;;;;;45.30;5.95;;;;;;;10.92;73.61;101029.91;5008912;28;20029;-59
2022/01/03 11:16:01;;;;;;;45.15;7.65;;;;;;;10.95;73.28;101015.75;4993821;28;20473;-63
2022/01/03 11:18:32;;;;;;;41.05;5.75;;;;;;;10.93;74.00;101022.88;5000680;28;20021;-63
2022/01/03 11:21:09;;;;;;;42.78;5.70;;;;;;;10.77;73.83;101020.72;4989953;28;20137;-65
2022/01/03 11:23:35;;;;;;;41.38;6.30;;;;;;;10.68;74.71;101018.38;4999999;28;20057;-63
2022/01/03 11:26:17;;;;;;;41.63;6.47;;;;;;;10.77;73.83;101012.81;4988459;28;20022;-63
2022/01/03 11:28:43;;;;;;;40.63;5.63;;;;;;;10.80;73.64;101017.13;4974392;28;20032;-61
2022/01/03 11:31:11;;;;;;;33.95;5.82;;;;;;;10.81;73.59;101009.16;4997588;28;20504;-63
2022/01/03 11:33:38;;;;;;;36.38;6.60;;;;;;;10.76;73.55;101003.19;4999527;28;20396;-64
2022/01/03 11:36:04;;;;;;;41.05;5.10;;;;;;;10.76;73.47;101003.19;4994813;28;20021;-55